Time;durP1;ratioP1;P1;durP2;ratioP2;P2;SDS_P1;SDS_P2;PMS_P1;PMS_P2;Temp;Humidity;BMP_temperature;BMP_pressure;BME280_temperature;BME280_humidity;BME280_pressure;Samples;Min_cycle;Max_cycle;Signal;HPM_P1;HPM_P2
2022/06/02 00:01:03;;;;;;;9.15;6.45;;;6.20;99.90;;;;;;4752441;30;20389;-70
2022/06/02 00:03:44;;;;;;;10.75;7.00;;;6.20;99.90;;;;;;4751960;30;20099;-71
2022/06/02 00:06:21;;;;;;;;;;;6.20;99.90;;;;;;4752545;30;20111;-71
2022/06/02 00:09:12;;;;;;;10.68;6.32;;;6.10;99.90;;;;;;4759485;30;20004;-70
2022/06/02 00:11:48;;;;;;;10.80;6.60;;;6.10;99.90;;;;;;4785470;29;20372;-71
2022/06/02 00:14:34;;;;;;;9.18;5.78;;;6.20;99.90;;;;;;4775587;30;20075;-70
2022/06/02 00:17:12;;;;;;;11.52;6.97;;;6.20;99.90;;;;;;4787591;30;20114;-70
2022/06/02 00:19:50;;;;;;;11.60;7.18;;;6.50;99.90;;;;;;4787623;29;20422;-71
2022/06/02 00:22:30;;;;;;;10.02;6.53;;;6.60;99.90;;;;;;4776081;30;20028;-71
2022/06/02 00:25:08;;;;;;;10.07;7.10;;;6.50;99.90;;;;;;4769594;30;20540;-71
2022/06/02 00:28:16;;;;;;;9.38;6.72;;;6.50;99.90;;;;;;4782502;30;20118;-70
2022/06/02 00:30:51;;;;;;;9.55;6.57;;;6.40;99.90;;;;;;4772413;30;20036;-71
2022/06/02 00:33:48;;;;;;;12.00;6.70;;;6.30;99.90;;;;;;4769387;30;20059;-70
2022/06/02 00:36:36;;;;;;;9.77;6.43;;;6.30;99.90;;;;;;4787245;30;20118;-71
2022/06/02 00:39:03;;;;;;;9.20;6.45;;;6.30;99.90;;;;;;4748599;30;20079;-71
2022/06/02 00:41:46;;;;;;;10.55;7.40;;;6.20;99.90;;;;;;4751618;30;20035;-70
2022/06/02 00:44:27;;;;;;;14.00;7.40;;;6.20;99.90;;;;;;4751598;30;20033;-71
2022/06/02 00:47:21;;;;;;;9.65;6.75;;;6.10;99.90;;;;;;4751625;30;20086;-71
2022/06/02 00:50:31;;;;;;;9.05;6.93;;;6.10;99.90;;;;;;4753448;30;20105;-71
2022/06/02 00:53:19;;;;;;;8.45;6.05;;;6.00;99.90;;;;;;4769306;30;20499;-70
2022/06/02 00:59:07;;;;;;;11.77;6.80;;;6.00;99.90;;;;;;4779768;30;20089;-70
2022/06/02 01:01:36;;;;;;;9.70;6.30;;;6.00;99.90;;;;;;4787138;30;20103;-70
2022/06/02 01:04:08;;;;;;;9.52;7.30;;;5.90;99.90;;;;;;4786985;29;20024;-70
2022/06/02 01:06:43;;;;;;;11.05;7.07;;;5.90;99.90;;;;;;4787020;29;20100;-70
2022/06/02 01:09:33;;;;;;;9.07;6.82;;;5.90;99.90;;;;;;4779429;30;20165;-70
2022/06/02 01:11:59;;;;;;;;;;;5.90;99.90;;;;;;4769273;30;20039;-71
2022/06/02 01:14:48;;;;;;;8.60;6.28;;;5.80;99.90;;;;;;4770029;30;19914;-70
2022/06/02 01:17:22;;;;;;;8.43;6.13;;;5.80;99.90;;;;;;4769066;30;20032;-70
2022/06/02 01:19:54;;;;;;;11.07;6.72;;;5.90;99.90;;;;;;4768905;30;20034;-70
2022/06/02 01:23:11;;;;;;;10.23;6.35;;;5.90;99.90;;;;;;4769100;30;20028;-70
2022/06/02 01:26:06;;;;;;;7.60;5.75;;;5.80;99.90;;;;;;4752015;30;20063;-70
2022/06/02 01:28:38;;;;;;;7.60;6.13;;;5.80;99.90;;;;;;4772430;30;20524;-70
2022/06/02 01:31:25;;;;;;;9.27;6.40;;;5.80;99.90;;;;;;4772742;30;20435;-70
2022/06/02 01:34:10;;;;;;;8.90;5.68;;;5.80;99.90;;;;;;4754530;30;20036;-70
2022/06/02 01:36:46;;;;;;;7.35;5.60;;;5.70;99.90;;;;;;4763946;30;20512;-70
2022/06/02 01:39:38;;;;;;;8.80;6.05;;;5.70;99.90;;;;;;4772190;30;20127;-71
2022/06/02 01:42:30;;;;;;;8.40;5.32;;;5.70;99.90;;;;;;4772234;30;20416;-70
2022/06/02 01:45:01;;;;;;;10.05;5.63;;;5.70;99.90;;;;;;4772135;30;20127;-70
2022/06/02 01:47:40;;;;;;;10.27;6.32;;;5.60;99.90;;;;;;4754354;30;20101;-71
2022/06/02 01:50:18;;;;;;;10.02;6.00;;;5.70;99.90;;;;;;4754493;30;20063;-71
2022/06/02 01:52:54;;;;;;;10.35;5.85;;;5.60;99.90;;;;;;4754210;30;20051;-71
2022/06/02 01:55:19;;;;;;;7.22;5.45;;;5.70;99.90;;;;;;4754459;30;20552;-70
2022/06/02 01:58:09;;;;;;;9.40;6.00;;;5.70;99.90;;;;;;4754142;30;20139;-71
2022/06/02 02:00:36;;;;;;;8.25;5.40;;;5.70;99.90;;;;;;4754140;30;20489;-71
2022/06/02 02:03:29;;;;;;;6.35;4.82;;;5.80;99.90;;;;;;4754148;30;20565;-70
2022/06/02 02:05:58;;;;;;;8.70;5.25;;;5.70;99.90;;;;;;4765923;30;20110;-70
2022/06/02 02:09:01;;;;;;;8.10;5.20;;;5.80;99.90;;;;;;4789729;30;20072;-70
2022/06/02 02:11:40;;;;;;;7.32;5.18;;;5.90;99.90;;;;;;4784182;30;20035;-70
2022/06/02 02:14:25;;;;;;;8.45;5.30;;;5.80;99.90;;;;;;4771562;30;20047;-70
2022/06/02 02:17:04;;;;;;;11.27;5.60;;;5.70;99.90;;;;;;4771703;30;20105;-71
2022/06/02 02:19:50;;;;;;;7.22;5.03;;;5.80;99.90;;;;;;4771629;30;20031;-71
2022/06/02 02:22:46;;;;;;;7.03;5.28;;;5.70;99.90;;;;;;4771592;30;20028;-70
2022/06/02 02:25:38;;;;;;;7.85;5.28;;;5.70;99.90;;;;;;4762839;30;20036;-70
2022/06/02 02:28:37;;;;;;;8.57;4.97;;;5.80;99.90;;;;;;4771559;30;20035;-70
2022/06/02 02:31:26;;;;;;;6.38;4.97;;;6.00;99.90;;;;;;4753598;30;20381;-70
2022/06/02 02:34:01;;;;;;;6.45;5.07;;;5.90;99.90;;;;;;4756576;30;20068;-70
2022/06/02 02:36:51;;;;;;;7.47;5.30;;;5.90;99.90;;;;;;4770271;30;20042;-70
2022/06/02 02:39:25;;;;;;;7.47;4.97;;;5.90;99.90;;;;;;4753436;30;20183;-70
2022/06/02 02:42:05;;;;;;;6.93;5.15;;;5.90;99.90;;;;;;4753466;30;20056;-71
2022/06/02 02:44:50;;;;;;;7.15;4.95;;;5.90;99.90;;;;;;4753433;30;20040;-70
2022/06/02 02:47:25;;;;;;;7.25;4.70;;;5.90;99.90;;;;;;4771083;30;20047;-70
2022/06/02 02:50:16;;;;;;;7.45;4.75;;;5.80;99.90;;;;;;4771059;30;20040;-70
2022/06/02 02:53:03;;;;;;;7.18;4.70;;;5.70;99.90;;;;;;4770608;30;20078;-70
2022/06/02 02:55:41;;;;;;;9.32;5.10;;;5.70;99.90;;;;;;4771003;30;20111;-70
2022/06/02 02:58:17;;;;;;;6.07;4.57;;;5.70;99.90;;;;;;4771115;30;20019;-70
2022/06/02 03:00:59;;;;;;;10.27;4.78;;;5.70;99.90;;;;;;4770854;30;20036;-70
2022/06/02 03:03:38;;;;;;;6.88;4.50;;;5.70;99.90;;;;;;4771138;30;20106;-70
2022/06/02 03:06:10;;;;;;;6.82;4.75;;;5.70;99.90;;;;;;4770743;30;20032;-70
2022/06/02 03:08:58;;;;;;;7.65;4.70;;;5.60;99.90;;;;;;4770665;30;20047;-70
2022/06/02 03:11:53;;;;;;;6.30;4.32;;;5.70;99.90;;;;;;4770503;30;20028;-70
2022/06/02 03:14:34;;;;;;;7.47;3.95;;;5.60;99.90;;;;;;4770010;30;20109;-70
2022/06/02 03:17:30;;;;;;;5.45;4.07;;;5.50;99.90;;;;;;4770526;30;20032;-71
2022/06/02 03:20:17;;;;;;;6.20;4.35;;;5.50;99.90;;;;;;4770477;30;20032;-70
2022/06/02 03:22:45;;;;;;;5.82;4.03;;;5.60;99.90;;;;;;4770488;30;20039;-70
2022/06/02 03:25:34;;;;;;;6.30;4.55;;;5.50;99.90;;;;;;4770354;30;20032;-71
2022/06/02 03:28:20;;;;;;;7.57;4.70;;;5.50;99.90;;;;;;4770468;30;20039;-71
2022/06/02 03:30:57;;;;;;;5.07;4.22;;;5.60;99.90;;;;;;4770425;30;20104;-70
2022/06/02 03:33:39;;;;;;;6.85;4.80;;;5.60;99.90;;;;;;4770569;30;20062;-70
2022/06/02 03:36:30;;;;;;;6.10;4.63;;;5.70;99.90;;;;;;4770362;30;20032;-70
2022/06/02 03:39:21;;;;;;;7.05;4.70;;;5.70;99.90;;;;;;4770357;30;20040;-71
2022/06/02 03:41:56;;;;;;;7.93;4.75;;;5.80;99.90;;;;;;4767202;30;20135;-70
2022/06/02 03:44:30;;;;;;;8.43;4.47;;;5.90;99.90;;;;;;4770241;30;20119;-71
2022/06/02 03:47:35;;;;;;;6.50;4.35;;;5.90;99.90;;;;;;4779618;30;20034;-71
2022/06/02 03:50:39;;;;;;;6.90;4.72;;;5.90;99.90;;;;;;4760998;30;20070;-70
2022/06/02 03:53:10;;;;;;;5.97;4.75;;;6.00;99.90;;;;;;4752190;30;20033;-71
2022/06/02 03:56:00;;;;;;;10.43;5.35;;;6.30;99.90;;;;;;4752196;30;20484;-71
2022/06/02 03:58:35;;;;;;;7.93;5.72;;;6.50;99.90;;;;;;4752180;30;20092;-71
2022/06/02 04:01:03;;;;;;;8.93;5.72;;;6.90;99.90;;;;;;4752113;30;20028;-71
2022/06/02 04:03:51;;;;;;;10.13;6.50;;;7.20;99.90;;;;;;4759377;30;20073;-70
2022/06/02 04:06:35;;;;;;;16.25;7.05;;;8.50;99.90;;;;;;4787259;30;20055;-71
2022/06/02 04:09:27;;;;;;;14.93;7.40;;;10.60;99.90;;;;;;4769818;30;20035;-71
2022/06/02 04:14:57;;;;;;;16.80;8.32;;;13.00;99.90;;;;;;4787621;30;20177;-71
2022/06/02 04:17:32;;;;;;;16.98;9.10;;;13.50;99.90;;;;;;4787492;30;20023;-71
2022/06/02 04:23:23;;;;;;;18.15;8.90;;;15.10;99.90;;;;;;4787300;30;20045;-71
2022/06/02 04:26:01;;;;;;;14.60;8.40;;;16.10;2.90;;;;;;4787372;30;20092;-71
2022/06/02 04:28:53;;;;;;;14.40;7.75;;;17.20;99.90;;;;;;4770294;30;20036;-71
2022/06/02 04:31:34;;;;;;;8.98;6.72;;;18.30;99.90;;;;;;4757234;30;20475;-71
2022/06/02 04:34:21;;;;;;;10.18;5.75;;;18.90;99.90;;;;;;4776254;30;20500;-71
2022/06/02 04:37:20;;;;;;;5.57;4.45;;;20.20;94.80;;;;;;4763395;30;20028;-71
2022/06/02 04:40:07;;;;;;;4.38;3.42;;;20.70;1.00;;;;;;4769367;30;20063;-71
2022/06/02 04:42:40;;;;;;;4.55;2.90;;;21.70;1.00;;;;;;4769329;30;20043;-71
2022/06/02 04:45:26;;;;;;;3.35;2.53;;;22.30;99.90;;;;;;4769453;30;20047;-71
2022/06/02 04:48:02;;;;;;;2.28;2.03;;;23.50;99.90;;;;;;4769225;30;20444;-71
2022/06/02 04:50:55;;;;;;;2.00;1.80;;;24.20;1.00;;;;;;4769424;30;20043;-71
2022/06/02 04:53:31;;;;;;;2.70;2.30;;;24.10;1.00;;;;;;4764308;30;20060;-71
2022/06/02 04:56:12;;;;;;;2.00;1.80;;;24.50;99.90;;;;;;4751527;30;20036;-72
2022/06/02 04:58:58;;;;;;;2.50;1.75;;;24.60;99.90;;;;;;4752608;30;20162;-71
2022/06/02 05:01:59;;;;;;;3.25;2.00;;;25.40;99.90;;;;;;4762765;30;20107;-71
2022/06/02 05:04:43;;;;;;;2.33;1.45;;;26.20;99.90;;;;;;4762992;30;20131;-76
2022/06/02 05:07:39;;;;;;;1.40;1.30;;;26.40;99.90;;;;;;4773259;30;20500;-75
2022/06/02 05:10:23;;;;;;;1.63;1.50;;;27.20;99.90;;;;;;4773238;30;20031;-75
2022/06/02 05:13:37;;;;;;;1.35;1.02;;;27.80;99.90;;;;;;4772607;30;20056;-75
2022/06/02 05:16:24;;;;;;;1.65;1.40;;;27.90;99.90;;;;;;4752787;30;20048;-75
2022/06/02 05:18:58;;;;;;;2.08;0.98;;;29.10;99.90;;;;;;4761773;30;20035;-76
2022/06/02 05:21:34;;;;;;;1.48;0.80;;;29.30;99.90;;;;;;4773135;30;20111;-75
2022/06/02 05:24:02;;;;;;;1.58;1.10;;;29.30;99.90;;;;;;4778310;30;20025;-76
2022/06/02 05:26:31;;;;;;;1.25;1.00;;;29.60;99.90;;;;;;4780455;30;20036;-75
2022/06/02 05:29:05;;;;;;;3.78;1.00;;;30.10;99.90;;;;;;4776359;30;20024;-76
2022/06/02 05:32:08;;;;;;;0.90;0.90;;;30.80;99.90;;;;;;4772785;30;20031;-75
2022/06/02 05:35:05;;;;;;;1.25;1.00;;;30.90;99.90;;;;;;4757677;30;20242;-76
2022/06/02 05:38:22;;;;;;;1.05;0.70;;;31.60;99.90;;;;;;4754903;30;20043;-75
2022/06/02 05:41:01;;;;;;;0.60;0.60;;;32.20;99.90;;;;;;4776946;30;20031;-76
2022/06/02 05:46:33;;;;;;;1.00;1.00;;;33.10;99.90;;;;;;5166517;24;20068;-73
2022/06/02 05:49:14;;;;;;;0.70;0.70;;;32.70;99.90;;;;;;4746236;30;20055;-72
2022/06/02 05:51:42;;;;;;;1.17;0.80;;;33.20;99.90;;;;;;4753732;30;20094;-72
2022/06/02 05:54:23;;;;;;;0.80;0.80;;;33.50;99.90;;;;;;4754317;30;20040;-72
2022/06/02 05:57:50;;;;;;;1.50;0.80;;;33.20;99.90;;;;;;4754478;30;20032;-72
2022/06/02 06:00:30;;;;;;;0.77;0.77;;;32.40;99.90;;;;;;4681988;30;20069;-72
2022/06/02 06:03:10;;;;;;;0.88;0.70;;;32.20;99.90;;;;;;4727895;30;20053;-72
2022/06/02 06:05:44;;;;;;;1.15;0.80;;;32.20;99.90;;;;;;4746348;30;20047;-72
2022/06/02 06:08:33;;;;;;;1.13;0.60;;;32.40;99.90;;;;;;4744438;30;20183;-72
2022/06/02 06:11:36;;;;;;;1.95;0.80;;;32.50;99.90;;;;;;4754160;30;20036;-72
2022/06/02 06:14:25;;;;;;;0.73;0.60;;;30.10;99.90;;;;;;4753964;30;20040;-72
2022/06/02 06:16:57;;;;;;;;;;;26.00;99.90;;;;;;4746521;30;20031;-72
2022/06/02 06:20:04;;;;;;;1.70;0.73;;;24.00;99.90;;;;;;4753988;30;20673;-72
2022/06/02 06:22:54;;;;;;;2.15;1.00;;;23.60;99.90;;;;;;4739789;30;20036;-72
2022/06/02 06:25:41;;;;;;;1.13;0.80;;;23.30;99.90;;;;;;4736146;30;20390;-72
2022/06/02 06:28:14;;;;;;;0.88;0.88;;;21.80;99.90;;;;;;4736205;30;20409;-72
2022/06/02 06:31:01;;;;;;;1.65;0.85;;;21.50;99.90;;;;;;4745262;30;20166;-71
2022/06/02 06:34:06;;;;;;;1.13;0.90;;;21.40;99.90;;;;;;4753660;30;20035;-71
2022/06/02 06:37:04;;;;;;;0.93;0.60;;;21.20;1.00;;;;;;4753568;30;20447;-71
2022/06/02 06:39:48;;;;;;;1.52;1.02;;;20.80;1.00;;;;;;4735909;30;20086;-72
2022/06/02 06:42:51;;;;;;;1.10;0.70;;;20.00;1.00;;;;;;4752271;30;20032;-71
2022/06/02 06:45:33;;;;;;;2.42;0.77;;;24.30;99.90;;;;;;4734783;30;20036;-71
2022/06/02 06:48:06;;;;;;;0.98;0.70;;;25.10;99.90;;;;;;4753499;30;20087;-72
2022/06/02 06:50:54;;;;;;;1.52;0.65;;;23.30;99.90;;;;;;4752277;30;20203;-73
2022/06/02 06:53:36;;;;;;;0.98;0.88;;;25.80;99.90;;;;;;4753854;30;20063;-72
2022/06/02 06:56:10;;;;;;;1.85;0.70;;;28.10;99.90;;;;;;4753498;30;20036;-72
2022/06/02 06:58:42;;;;;;;1.33;0.98;;;30.90;99.90;;;;;;4753449;30;20039;-72
2022/06/02 07:01:27;;;;;;;1.65;0.70;;;32.20;99.90;;;;;;4753223;30;20055;-73
2022/06/02 07:04:22;;;;;;;2.20;1.10;;;34.00;99.90;;;;;;4752727;30;20392;-73
2022/06/02 07:07:26;;;;;;;0.80;0.80;;;35.00;99.90;;;;;;4752245;30;20460;-72
2022/06/02 07:10:00;;;;;;;3.08;1.00;;;35.20;99.90;;;;;;4742088;30;20474;-73
2022/06/02 07:12:52;;;;;;;1.85;0.82;;;29.90;99.90;;;;;;4735481;30;20043;-72
2022/06/02 07:15:33;;;;;;;0.80;0.70;;;33.60;99.90;;;;;;4750089;30;20024;-72
2022/06/02 07:18:15;;;;;;;0.70;0.60;;;33.80;99.90;;;;;;4752914;30;20028;-73
2022/06/02 07:21:07;;;;;;;1.17;0.77;;;36.10;99.90;;;;;;4752855;30;20036;-73
2022/06/02 07:23:42;;;;;;;1.80;0.70;;;33.90;99.90;;;;;;4752933;30;20415;-72
2022/06/02 07:26:28;;;;;;;2.00;0.98;;;29.10;99.90;;;;;;4741646;30;20122;-73
2022/06/02 07:29:03;;;;;;;1.38;0.88;;;34.00;99.90;;;;;;4741636;30;20055;-73
2022/06/02 07:32:02;;;;;;;4.10;0.98;;;33.70;99.90;;;;;;4752709;30;20033;-74
2022/06/02 07:34:45;;;;;;;1.23;0.82;;;31.00;99.90;;;;;;4750894;30;20025;-72
2022/06/02 07:37:39;;;;;;;0.80;0.80;;;27.80;99.90;;;;;;4752670;30;20498;-73
2022/06/02 07:40:18;;;;;;;0.68;0.68;;;30.40;99.90;;;;;;4752309;30;20421;-73
2022/06/02 07:42:45;;;;;;;;;;;28.30;99.90;;;;;;4752692;30;20115;-73
2022/06/02 07:45:31;;;;;;;2.08;0.93;;;25.30;99.90;;;;;;4752486;30;19914;-73
2022/06/02 07:48:17;;;;;;;1.45;0.77;;;27.10;99.90;;;;;;4741781;30;20084;-72
2022/06/02 07:50:55;;;;;;;1.52;0.90;;;31.90;99.90;;;;;;4752508;30;20032;-73
2022/06/02 07:53:40;;;;;;;1.35;0.60;;;32.80;99.90;;;;;;4734610;30;20080;-73
2022/06/02 07:56:33;;;;;;;1.00;0.82;;;28.60;99.90;;;;;;4750190;30;20025;-73
2022/06/02 07:59:32;;;;;;;0.85;0.52;;;27.10;99.90;;;;;;4751103;30;20174;-73
2022/06/02 08:02:25;;;;;;;0.95;0.70;;;33.30;99.90;;;;;;4745111;30;20546;-72
2022/06/02 08:05:06;;;;;;;1.20;1.05;;;28.80;99.90;;;;;;4751962;30;20032;-72
2022/06/02 08:07:46;;;;;;;1.75;1.00;;;33.60;99.90;;;;;;4752035;30;20035;-72
2022/06/02 08:10:33;;;;;;;1.52;0.70;;;32.20;99.90;;;;;;4741681;30;20092;-72
2022/06/02 08:13:36;;;;;;;0.70;0.70;;;31.20;99.90;;;;;;4734419;30;20463;-72
2022/06/02 08:16:41;;;;;;;0.73;0.73;;;33.60;99.90;;;;;;4735773;30;20173;-72
2022/06/02 08:19:35;;;;;;;1.73;0.80;;;36.00;99.90;;;;;;4751854;30;20032;-72
2022/06/02 08:22:06;;;;;;;1.92;0.80;;;35.50;99.90;;;;;;4751894;30;20064;-72
2022/06/02 08:24:59;;;;;;;1.00;0.90;;;31.70;99.90;;;;;;4751924;30;20037;-73
2022/06/02 08:27:25;;;;;;;0.68;0.68;;;28.30;99.90;;;;;;4750647;30;20502;-73
2022/06/02 08:30:18;;;;;;;1.92;0.80;;;26.50;99.90;;;;;;4751704;30;20492;-72
2022/06/02 08:33:18;;;;;;;0.80;0.80;;;31.00;99.90;;;;;;4735098;30;20120;-70
2022/06/02 08:36:07;;;;;;;1.08;0.90;;;29.20;99.90;;;;;;4751773;30;20477;-70
2022/06/02 08:38:58;;;;;;;1.05;0.95;;;31.00;99.90;;;;;;4750611;30;20754;-73
2022/06/02 08:41:56;;;;;;;0.98;0.77;;;29.40;99.90;;;;;;4751398;30;20035;-71
2022/06/02 08:44:40;;;;;;;1.05;0.93;;;26.20;99.90;;;;;;4751663;30;20056;-72
2022/06/02 08:47:31;;;;;;;1.08;0.85;;;25.60;99.90;;;;;;4751097;30;20056;-70
2022/06/02 08:50:50;;;;;;;1.13;1.02;;;26.30;99.90;;;;;;4741728;30;20511;-71
2022/06/02 08:53:45;;;;;;;2.47;0.93;;;25.50;99.90;;;;;;4713985;30;20072;-71
2022/06/02 08:56:43;;;;;;;0.73;0.73;;;25.00;99.90;;;;;;4749927;30;20056;-70
2022/06/02 08:59:31;;;;;;;1.25;0.90;;;31.40;99.90;;;;;;4717478;30;20139;-70
2022/06/02 09:02:34;;;;;;;2.10;0.88;;;36.00;99.90;;;;;;4751346;30;20043;-71
2022/06/02 09:05:31;;;;;;;1.60;1.05;;;29.70;99.90;;;;;;4747593;30;20140;-70
2022/06/02 09:08:28;;;;;;;2.40;0.85;;;26.90;99.90;;;;;;4746877;30;20036;-70
2022/06/02 09:11:29;;;;;;;1.40;0.73;;;26.80;99.90;;;;;;4751066;30;20400;-70
2022/06/02 09:14:23;;;;;;;1.13;0.90;;;29.60;99.90;;;;;;4751301;30;20040;-71
2022/06/02 09:16:58;;;;;;;1.13;0.88;;;28.80;99.90;;;;;;4751123;30;20060;-70
2022/06/02 09:19:38;;;;;;;1.85;0.90;;;31.40;99.90;;;;;;4743383;30;20056;-70
2022/06/02 09:22:10;;;;;;;2.10;1.00;;;28.30;99.90;;;;;;4733635;30;20029;-70
2022/06/02 09:25:06;;;;;;;2.17;0.90;;;31.20;99.90;;;;;;4743791;30;20461;-71
2022/06/02 09:27:44;;;;;;;1.45;0.90;;;34.80;99.90;;;;;;4751168;30;20024;-71
2022/06/02 09:30:19;;;;;;;2.03;0.80;;;36.80;99.90;;;;;;4751396;30;20044;-70
2022/06/02 09:32:50;;;;;;;1.10;0.80;;;38.40;99.90;;;;;;4751366;30;20488;-70
2022/06/02 09:35:22;;;;;;;0.73;0.73;;;37.20;99.90;;;;;;4751597;30;20036;-70
2022/06/02 09:38:09;;;;;;;3.58;1.13;;;33.20;99.90;;;;;;4747615;30;20435;-70
2022/06/02 09:40:47;;;;;;;1.45;0.80;;;31.40;99.90;;;;;;4751236;30;20123;-70
2022/06/02 09:43:50;;;;;;;2.47;0.80;;;28.80;99.90;;;;;;4764687;30;20044;-70
2022/06/02 09:46:53;;;;;;;1.52;0.70;;;27.10;99.90;;;;;;4754114;30;20139;-70
2022/06/02 09:49:59;;;;;;;1.48;0.68;;;26.10;99.90;;;;;;4738656;30;20044;-70
2022/06/02 09:52:35;;;;;;;1.65;0.80;;;26.20;99.90;;;;;;4754419;30;20046;-70
2022/06/02 09:55:23;;;;;;;1.20;0.90;;;30.30;99.90;;;;;;4745235;30;20058;-71
2022/06/02 09:58:27;;;;;;;0.63;0.60;;;28.50;99.90;;;;;;4753906;30;20088;-70
2022/06/02 10:00:56;;;;;;;3.30;1.00;;;30.60;99.90;;;;;;4744498;30;20469;-70
2022/06/02 10:03:45;;;;;;;2.28;0.80;;;30.60;99.90;;;;;;4754127;30;20414;-70
2022/06/02 10:06:46;;;;;;;;;;;31.80;99.90;;;;;;4754369;30;20067;-71
2022/06/02 10:09:36;;;;;;;1.17;1.08;;;30.20;99.90;;;;;;4753778;30;19980;-70
2022/06/02 10:15:04;;;;;;;1.40;1.08;;;29.20;99.90;;;;;;4752979;30;20040;-71
2022/06/02 10:17:58;;;;;;;1.70;1.00;;;27.10;99.90;;;;;;4753551;30;20115;-71
2022/06/02 10:21:04;;;;;;;2.25;1.10;;;26.60;99.90;;;;;;4752306;30;20041;-70
2022/06/02 10:23:58;;;;;;;2.28;1.00;;;26.50;99.90;;;;;;4753076;30;20028;-70
2022/06/02 10:27:04;;;;;;;3.30;1.30;;;26.20;99.90;;;;;;4752465;30;20492;-71
2022/06/02 10:29:55;;;;;;;2.38;1.10;;;25.60;99.90;;;;;;4753138;30;20044;-70
2022/06/02 10:32:49;;;;;;;1.38;1.02;;;27.20;99.90;;;;;;4753316;30;20040;-70
2022/06/02 10:35:33;;;;;;;2.85;1.05;;;28.50;99.90;;;;;;4735474;30;20100;-70
2022/06/02 10:38:20;;;;;;;2.55;1.00;;;29.90;99.90;;;;;;4735241;30;20064;-71
2022/06/02 10:40:52;;;;;;;1.00;1.00;;;34.30;99.90;;;;;;4747669;30;20032;-70
2022/06/02 10:43:43;;;;;;;2.05;0.80;;;36.90;99.90;;;;;;4752780;30;20044;-71
2022/06/02 10:46:36;;;;;;;2.38;1.10;;;29.50;99.90;;;;;;4734977;30;20106;-70
2022/06/02 10:49:25;;;;;;;1.83;1.27;;;27.10;99.90;;;;;;4735026;30;20515;-70
2022/06/02 10:52:16;;;;;;;1.13;1.00;;;24.80;99.90;;;;;;4745372;30;20056;-70
2022/06/02 10:54:56;;;;;;;1.15;0.90;;;24.40;99.90;;;;;;4752558;30;20028;-70
2022/06/02 10:57:59;;;;;;;1.35;1.00;;;25.00;99.90;;;;;;4751872;30;20034;-70
2022/06/02 11:00:59;;;;;;;1.67;1.25;;;24.10;99.90;;;;;;4752686;30;20105;-71
2022/06/02 11:03:52;;;;;;;1.58;1.15;;;24.00;99.90;;;;;;4752450;30;20068;-70
2022/06/02 11:06:58;;;;;;;2.00;1.00;;;23.60;99.90;;;;;;4744180;30;20064;-70
2022/06/02 11:09:35;;;;;;;1.60;0.88;;;23.40;99.90;;;;;;4743603;30;20103;-70
2022/06/02 11:12:25;;;;;;;1.00;0.90;;;25.70;99.90;;;;;;4752390;30;20039;-70
2022/06/02 11:15:17;;;;;;;1.15;1.02;;;29.00;99.90;;;;;;4752644;30;20088;-70
2022/06/02 11:17:48;;;;;;;0.85;0.85;;;28.00;99.90;;;;;;4734792;30;20033;-70
2022/06/02 11:20:26;;;;;;;1.58;1.10;;;26.30;99.90;;;;;;4734655;30;20112;-70
2022/06/02 11:23:28;;;;;;;1.17;1.08;;;25.50;99.90;;;;;;4734522;30;20029;-70
2022/06/02 11:26:22;;;;;;;1.35;1.08;;;25.20;99.90;;;;;;4734513;30;20044;-71
2022/06/02 11:29:12;;;;;;;1.67;1.50;;;24.50;99.90;;;;;;4734786;30;20037;-71
2022/06/02 11:32:11;;;;;;;1.85;1.15;;;24.10;99.90;;;;;;4734678;30;20028;-70
2022/06/02 11:35:05;;;;;;;3.25;1.00;;;24.30;99.90;;;;;;4734556;30;20041;-70
2022/06/02 11:38:03;;;;;;;1.20;0.70;;;25.10;99.90;;;;;;4734683;30;20493;-71
2022/06/02 11:40:57;;;;;;;3.90;1.40;;;25.60;99.90;;;;;;4752023;30;20055;-72
2022/06/02 11:43:38;;;;;;;2.53;1.10;;;25.50;99.90;;;;;;4751810;30;20385;-71
2022/06/02 11:46:13;;;;;;;1.50;0.88;;;25.30;99.90;;;;;;4751521;30;20119;-70
2022/06/02 11:48:58;;;;;;;1.30;1.20;;;24.70;99.90;;;;;;4734189;30;20041;-71
2022/06/02 11:51:26;;;;;;;1.35;0.90;;;24.30;99.90;;;;;;4749445;30;20024;-71
2022/06/02 11:54:30;;;;;;;1.15;1.13;;;24.00;99.90;;;;;;4751947;30;20378;-71
2022/06/02 11:57:32;;;;;;;1.65;0.85;;;24.00;99.90;;;;;;4734421;30;20052;-70
2022/06/02 12:00:13;;;;;;;2.35;1.10;;;23.00;99.90;;;;;;4743920;30;20040;-71
2022/06/02 12:03:06;;;;;;;1.70;0.90;;;22.50;99.90;;;;;;4752110;30;20099;-71
2022/06/02 12:05:55;;;;;;;1.70;1.10;;;22.30;99.90;;;;;;4752109;30;20055;-70
2022/06/02 12:08:39;;;;;;;1.20;1.10;;;22.20;99.90;;;;;;4754153;30;20045;-70
2022/06/02 12:11:52;;;;;;;2.65;1.00;;;22.40;99.90;;;;;;4737951;30;20032;-70
2022/06/02 12:14:30;;;;;;;1.77;1.20;;;22.20;99.90;;;;;;4737276;30;20048;-70
2022/06/02 12:17:04;;;;;;;1.38;0.82;;;21.50;99.90;;;;;;4751837;30;20028;-70
2022/06/02 12:19:36;;;;;;;2.30;1.20;;;20.80;99.90;;;;;;4751914;30;20024;-71
2022/06/02 12:22:29;;;;;;;1.27;1.02;;;20.60;99.90;;;;;;4751926;30;20051;-70
2022/06/02 12:25:04;;;;;;;2.05;0.95;;;20.50;99.90;;;;;;4751623;30;20086;-71
2022/06/02 12:27:54;;;;;;;2.17;1.25;;;20.60;99.90;;;;;;4751875;30;20029;-70
2022/06/02 12:31:02;;;;;;;1.67;1.58;;;21.20;99.90;;;;;;4751678;30;20100;-69
2022/06/02 12:33:37;;;;;;;1.45;1.35;;;20.90;99.90;;;;;;4751170;30;20071;-70
2022/06/02 12:36:28;;;;;;;1.20;1.10;;;21.30;99.90;;;;;;4751625;30;20508;-70
2022/06/02 12:39:32;;;;;;;1.73;1.00;;;21.40;99.90;;;;;;4751615;30;20036;-70
2022/06/02 12:42:20;;;;;;;2.58;1.20;;;21.80;99.90;;;;;;4734182;30;20060;-71
2022/06/02 12:45:05;;;;;;;1.77;1.10;;;22.00;99.90;;;;;;4734187;30;20083;-70
2022/06/02 12:47:46;;;;;;;3.95;1.50;;;22.40;99.90;;;;;;4746916;30;20421;-70
2022/06/02 12:50:30;;;;;;;1.35;0.90;;;22.90;99.90;;;;;;4751583;30;20032;-70
2022/06/02 12:53:20;;;;;;;3.10;1.33;;;23.50;99.90;;;;;;4751416;30;20028;-70
2022/06/02 12:56:24;;;;;;;3.65;1.00;;;23.60;99.90;;;;;;4751398;30;20038;-70
2022/06/02 12:59:16;;;;;;;1.83;1.17;;;24.70;99.90;;;;;;4751845;30;20051;-70
2022/06/02 13:02:00;;;;;;;1.17;1.08;;;25.00;99.90;;;;;;4734345;30;20512;-70
2022/06/02 13:04:41;;;;;;;1.23;1.13;;;23.60;99.90;;;;;;4745392;30;20346;-71
2022/06/02 13:07:14;;;;;;;2.03;1.08;;;22.60;99.90;;;;;;4733719;30;20056;-70
2022/06/02 13:09:58;;;;;;;1.13;1.02;;;22.80;99.90;;;;;;4734788;30;20041;-70
2022/06/02 13:12:52;;;;;;;1.80;1.20;;;22.40;99.90;;;;;;4733912;30;20683;-70
2022/06/02 13:15:32;;;;;;;2.90;1.27;;;22.40;99.90;;;;;;4733904;30;20044;-70
2022/06/02 13:18:10;;;;;;;1.20;1.10;;;22.60;99.90;;;;;;4735184;30;20047;-70
2022/06/02 13:21:00;;;;;;;3.35;1.50;;;22.80;99.90;;;;;;4754133;30;20101;-70
2022/06/02 13:24:03;;;;;;;3.17;1.27;;;22.40;99.90;;;;;;4752811;30;20032;-70
2022/06/02 13:27:03;;;;;;;1.73;1.20;;;21.80;99.90;;;;;;4748829;30;20066;-70
2022/06/02 13:29:48;;;;;;;;;;;22.30;99.90;;;;;;4755357;30;20491;-70
2022/06/02 13:32:40;;;;;;;1.20;1.20;;;22.60;99.90;;;;;;4754559;30;19914;-70
2022/06/02 13:35:35;;;;;;;1.02;0.70;;;23.00;99.90;;;;;;4754646;30;20115;-70
2022/06/02 13:38:18;;;;;;;2.58;1.13;;;22.40;99.90;;;;;;4754734;30;20020;-70
2022/06/02 13:41:19;;;;;;;1.08;1.00;;;21.30;99.90;;;;;;4754576;30;20028;-71
2022/06/02 13:44:15;;;;;;;1.45;1.23;;;20.20;99.90;;;;;;4737822;30;20048;-70
2022/06/02 13:47:06;;;;;;;1.55;1.13;;;20.50;99.90;;;;;;4752887;30;20558;-70
2022/06/02 13:49:55;;;;;;;1.80;1.23;;;20.60;99.90;;;;;;4749917;30;20107;-71
2022/06/02 13:53:01;;;;;;;2.65;1.60;;;20.90;99.90;;;;;;4754393;30;20033;-70
2022/06/02 13:58:30;;;;;;;;;;;21.40;99.90;;;;;;4754059;30;20102;-70
2022/06/02 14:01:26;;;;;;;2.63;1.13;;;21.40;99.90;;;;;;4754546;30;20329;-71
2022/06/02 14:04:19;;;;;;;1.42;1.17;;;21.30;99.90;;;;;;4754505;30;20055;-70
2022/06/02 14:07:00;;;;;;;1.50;1.30;;;21.10;99.90;;;;;;4746527;30;20044;-71
2022/06/02 14:10:00;;;;;;;1.60;1.10;;;21.30;99.90;;;;;;4753706;30;20043;-70
2022/06/02 14:12:32;;;;;;;1.40;1.20;;;21.10;99.90;;;;;;4753953;30;20052;-70
2022/06/02 14:15:43;;;;;;;2.95;1.25;;;21.10;99.90;;;;;;4753891;30;20052;-70
2022/06/02 14:18:36;;;;;;;1.63;1.52;;;20.30;99.90;;;;;;4713625;30;20630;-71
2022/06/02 14:21:45;;;;;;;2.15;1.55;;;20.20;99.90;;;;;;4743592;30;20036;-71
2022/06/02 14:24:42;;;;;;;4.55;1.33;;;20.60;99.90;;;;;;4753897;30;20043;-71
2022/06/02 14:27:23;;;;;;;2.92;1.15;;;21.10;99.90;;;;;;4753667;30;20044;-71
2022/06/02 14:30:06;;;;;;;4.18;1.20;;;21.40;99.90;;;;;;4753578;30;20040;-70
2022/06/02 14:32:38;;;;;;;1.83;1.33;;;21.40;99.90;;;;;;4735824;30;20561;-70
2022/06/02 14:35:07;;;;;;;1.55;1.35;;;21.60;99.90;;;;;;4753570;30;20054;-70
2022/06/02 14:37:59;;;;;;;2.08;1.75;;;21.50;99.90;;;;;;4753457;30;20107;-70
2022/06/02 14:40:41;;;;;;;2.25;1.42;;;21.30;99.90;;;;;;4739325;30;20411;-70
2022/06/02 14:43:27;;;;;;;1.35;1.25;;;21.40;99.90;;;;;;4753529;30;20047;-70
2022/06/02 14:45:58;;;;;;;4.30;1.20;;;21.80;99.90;;;;;;4753455;30;20032;-70
2022/06/02 14:48:51;;;;;;;1.70;1.40;;;21.90;99.90;;;;;;4753446;30;20408;-70